sensor_id;sensor_type;location;lat;lon;timestamp;P1;durP1;ratioP1;P2;durP2;ratioP2
14040;SDS011;7095;51.388;6.196;2022-12-10T00:01:47;68.03;;;30.03;;
14040;SDS011;7095;51.388;6.196;2022-12-10T00:04:18;65.17;;;29.30;;
14040;SDS011;7095;51.388;6.196;2022-12-10T00:06:47;58.33;;;26.63;;
14040;SDS011;7095;51.388;6.196;2022-12-10T00:09:16;56.20;;;29.47;;
14040;SDS011;7095;51.388;6.196;2022-12-10T00:11:47;65.27;;;29.53;;
14040;SDS011;7095;51.388;6.196;2022-12-10T00:14:16;59.57;;;26.37;;
14040;SDS011;7095;51.388;6.196;2022-12-10T00:16:44;55.10;;;25.60;;
14040;SDS011;7095;51.388;6.196;2022-12-10T00:19:12;55.53;;;27.17;;
14040;SDS011;7095;51.388;6.196;2022-12-10T00:21:42;55.47;;;24.80;;
14040;SDS011;7095;51.388;6.196;2022-12-10T00:24:12;60.23;;;28.23;;
14040;SDS011;7095;51.388;6.196;2022-12-10T00:26:40;65.30;;;28.93;;
14040;SDS011;7095;51.388;6.196;2022-12-10T00:29:10;64.77;;;28.73;;
14040;SDS011;7095;51.388;6.196;2022-12-10T00:31:40;72.10;;;29.87;;
14040;SDS011;7095;51.388;6.196;2022-12-10T00:34:09;64.13;;;30.80;;
14040;SDS011;7095;51.388;6.196;2022-12-10T00:36:40;73.37;;;32.50;;
14040;SDS011;7095;51.388;6.196;2022-12-10T00:39:13;66.07;;;29.77;;
14040;SDS011;7095;51.388;6.196;2022-12-10T00:41:43;62.47;;;28.87;;
14040;SDS011;7095;51.388;6.196;2022-12-10T00:44:12;56.67;;;28.00;;
14040;SDS011;7095;51.388;6.196;2022-12-10T00:46:42;65.30;;;30.20;;
14040;SDS011;7095;51.388;6.196;2022-12-10T00:49:10;75.17;;;31.87;;
14040;SDS011;7095;51.388;6.196;2022-12-10T00:51:39;67.40;;;28.17;;
14040;SDS011;7095;51.388;6.196;2022-12-10T00:54:10;70.57;;;31.93;;
14040;SDS011;7095;51.388;6.196;2022-12-10T00:56:40;66.47;;;31.90;;
14040;SDS011;7095;51.388;6.196;2022-12-10T00:59:09;62.23;;;28.30;;
14040;SDS011;7095;51.388;6.196;2022-12-10T01:01:38;67.50;;;29.07;;
14040;SDS011;7095;51.388;6.196;2022-12-10T01:04:09;65.63;;;29.43;;
14040;SDS011;7095;51.388;6.196;2022-12-10T01:06:40;64.60;;;31.03;;
14040;SDS011;7095;51.388;6.196;2022-12-10T01:09:11;59.43;;;28.33;;
14040;SDS011;7095;51.388;6.196;2022-12-10T01:11:43;67.27;;;28.50;;
14040;SDS011;7095;51.388;6.196;2022-12-10T01:14:13;70.87;;;30.03;;
14040;SDS011;7095;51.388;6.196;2022-12-10T01:16:47;71.23;;;31.57;;
14040;SDS011;7095;51.388;6.196;2022-12-10T01:19:15;63.77;;;28.33;;
14040;SDS011;7095;51.388;6.196;2022-12-10T01:21:44;71.07;;;30.53;;
14040;SDS011;7095;51.388;6.196;2022-12-10T01:24:12;64.13;;;30.10;;
14040;SDS011;7095;51.388;6.196;2022-12-10T01:26:44;61.87;;;29.37;;
14040;SDS011;7095;51.388;6.196;2022-12-10T01:29:13;64.90;;;27.77;;
14040;SDS011;7095;51.388;6.196;2022-12-10T01:31:42;67.20;;;28.97;;
14040;SDS011;7095;51.388;6.196;2022-12-10T01:34:12;70.83;;;32.17;;
14040;SDS011;7095;51.388;6.196;2022-12-10T01:36:42;71.53;;;29.97;;
14040;SDS011;7095;51.388;6.196;2022-12-10T01:39:13;78.00;;;31.33;;
14040;SDS011;7095;51.388;6.196;2022-12-10T01:41:43;77.57;;;33.93;;
14040;SDS011;7095;51.388;6.196;2022-12-10T01:47:22;66.50;;;29.17;;
14040;SDS011;7095;51.388;6.196;2022-12-10T01:49:51;64.47;;;28.77;;
14040;SDS011;7095;51.388;6.196;2022-12-10T01:52:20;65.67;;;30.30;;
14040;SDS011;7095;51.388;6.196;2022-12-10T01:54:48;67.87;;;28.37;;
14040;SDS011;7095;51.388;6.196;2022-12-10T01:57:19;67.07;;;30.73;;
14040;SDS011;7095;51.388;6.196;2022-12-10T01:59:50;66.87;;;29.83;;
14040;SDS011;7095;51.388;6.196;2022-12-10T02:02:30;75.93;;;31.50;;
14040;SDS011;7095;51.388;6.196;2022-12-10T02:05:16;63.77;;;27.40;;
14040;SDS011;7095;51.388;6.196;2022-12-10T02:07:58;70.30;;;29.63;;
14040;SDS011;7095;51.388;6.196;2022-12-10T02:10:39;64.33;;;29.37;;
14040;SDS011;7095;51.388;6.196;2022-12-10T02:13:16;70.03;;;29.27;;
14040;SDS011;7095;51.388;6.196;2022-12-10T02:15:47;68.80;;;31.50;;
14040;SDS011;7095;51.388;6.196;2022-12-10T02:18:19;70.77;;;29.90;;
14040;SDS011;7095;51.388;6.196;2022-12-10T02:20:50;66.97;;;29.20;;
14040;SDS011;7095;51.388;6.196;2022-12-10T02:23:22;70.10;;;31.80;;
14040;SDS011;7095;51.388;6.196;2022-12-10T02:25:55;64.70;;;29.10;;
14040;SDS011;7095;51.388;6.196;2022-12-10T02:28:31;67.60;;;28.67;;
14040;SDS011;7095;51.388;6.196;2022-12-10T02:31:09;67.00;;;29.07;;
14040;SDS011;7095;51.388;6.196;2022-12-10T02:33:40;69.50;;;28.77;;
14040;SDS011;7095;51.388;6.196;2022-12-10T02:36:12;71.40;;;30.57;;
14040;SDS011;7095;51.388;6.196;2022-12-10T02:38:44;73.67;;;31.43;;
14040;SDS011;7095;51.388;6.196;2022-12-10T02:41:16;84.00;;;34.13;;
14040;SDS011;7095;51.388;6.196;2022-12-10T02:43:51;78.70;;;33.27;;
14040;SDS011;7095;51.388;6.196;2022-12-10T02:46:24;68.70;;;31.63;;
14040;SDS011;7095;51.388;6.196;2022-12-10T02:48:59;64.30;;;28.50;;
14040;SDS011;7095;51.388;6.196;2022-12-10T02:51:30;69.30;;;29.83;;
14040;SDS011;7095;51.388;6.196;2022-12-10T02:54:00;74.50;;;31.87;;
14040;SDS011;7095;51.388;6.196;2022-12-10T02:56:33;88.60;;;35.13;;
14040;SDS011;7095;51.388;6.196;2022-12-10T02:59:06;81.40;;;33.03;;
14040;SDS011;7095;51.388;6.196;2022-12-10T03:01:52;79.73;;;34.13;;
14040;SDS011;7095;51.388;6.196;2022-12-10T03:04:29;82.80;;;33.77;;
14040;SDS011;7095;51.388;6.196;2022-12-10T03:07:03;77.93;;;31.30;;
14040;SDS011;7095;51.388;6.196;2022-12-10T03:09:37;79.40;;;33.27;;
14040;SDS011;7095;51.388;6.196;2022-12-10T03:12:14;75.83;;;31.63;;
14040;SDS011;7095;51.388;6.196;2022-12-10T03:14:47;81.57;;;34.53;;
14040;SDS011;7095;51.388;6.196;2022-12-10T03:17:17;69.77;;;31.07;;
14040;SDS011;7095;51.388;6.196;2022-12-10T03:19:47;75.97;;;31.20;;
14040;SDS011;7095;51.388;6.196;2022-12-10T03:22:18;76.73;;;32.77;;
14040;SDS011;7095;51.388;6.196;2022-12-10T03:24:48;65.80;;;28.57;;
14040;SDS011;7095;51.388;6.196;2022-12-10T03:27:19;69.67;;;31.30;;
14040;SDS011;7095;51.388;6.196;2022-12-10T03:29:51;82.80;;;33.50;;
14040;SDS011;7095;51.388;6.196;2022-12-10T03:32:25;71.10;;;30.63;;
14040;SDS011;7095;51.388;6.196;2022-12-10T03:34:56;76.20;;;33.50;;
14040;SDS011;7095;51.388;6.196;2022-12-10T03:37:27;81.83;;;34.73;;
14040;SDS011;7095;51.388;6.196;2022-12-10T03:39:57;75.20;;;31.07;;
14040;SDS011;7095;51.388;6.196;2022-12-10T03:42:26;82.90;;;32.93;;
14040;SDS011;7095;51.388;6.196;2022-12-10T03:44:55;66.73;;;31.43;;
14040;SDS011;7095;51.388;6.196;2022-12-10T03:47:24;65.57;;;30.13;;
14040;SDS011;7095;51.388;6.196;2022-12-10T03:49:53;82.53;;;33.47;;
14040;SDS011;7095;51.388;6.196;2022-12-10T03:52:22;72.70;;;31.03;;
14040;SDS011;7095;51.388;6.196;2022-12-10T03:54:50;71.13;;;31.23;;
14040;SDS011;7095;51.388;6.196;2022-12-10T03:57:19;76.23;;;31.30;;
14040;SDS011;7095;51.388;6.196;2022-12-10T03:59:47;73.80;;;32.50;;
14040;SDS011;7095;51.388;6.196;2022-12-10T04:02:16;75.30;;;33.10;;
14040;SDS011;7095;51.388;6.196;2022-12-10T04:04:46;85.27;;;34.60;;
14040;SDS011;7095;51.388;6.196;2022-12-10T04:07:15;76.50;;;32.10;;
14040;SDS011;7095;51.388;6.196;2022-12-10T04:09:44;73.67;;;32.13;;
14040;SDS011;7095;51.388;6.196;2022-12-10T04:12:12;77.07;;;32.83;;
14040;SDS011;7095;51.388;6.196;2022-12-10T04:14:41;75.83;;;32.07;;
14040;SDS011;7095;51.388;6.196;2022-12-10T04:17:27;86.10;;;33.97;;
14040;SDS011;7095;51.388;6.196;2022-12-10T04:19:57;87.87;;;35.37;;
14040;SDS011;7095;51.388;6.196;2022-12-10T04:22:25;90.20;;;33.83;;
14040;SDS011;7095;51.388;6.196;2022-12-10T04:25:11;80.60;;;34.07;;
14040;SDS011;7095;51.388;6.196;2022-12-10T04:27:58;84.97;;;34.73;;
14040;SDS011;7095;51.388;6.196;2022-12-10T04:30:26;82.97;;;35.00;;
14040;SDS011;7095;51.388;6.196;2022-12-10T04:32:55;88.20;;;36.23;;
14040;SDS011;7095;51.388;6.196;2022-12-10T04:35:24;88.57;;;38.33;;
14040;SDS011;7095;51.388;6.196;2022-12-10T04:37:53;98.80;;;40.07;;
14040;SDS011;7095;51.388;6.196;2022-12-10T04:40:21;95.17;;;37.87;;
14040;SDS011;7095;51.388;6.196;2022-12-10T04:42:50;90.17;;;37.97;;
14040;SDS011;7095;51.388;6.196;2022-12-10T04:45:18;110.83;;;41.50;;
14040;SDS011;7095;51.388;6.196;2022-12-10T04:47:47;97.53;;;39.37;;
14040;SDS011;7095;51.388;6.196;2022-12-10T04:50:16;91.33;;;38.20;;
14040;SDS011;7095;51.388;6.196;2022-12-10T04:52:46;100.30;;;38.63;;
14040;SDS011;7095;51.388;6.196;2022-12-10T04:55:15;108.47;;;41.33;;
14040;SDS011;7095;51.388;6.196;2022-12-10T04:57:44;110.33;;;42.33;;
14040;SDS011;7095;51.388;6.196;2022-12-10T05:00:12;101.90;;;40.70;;
14040;SDS011;7095;51.388;6.196;2022-12-10T05:02:41;100.47;;;41.47;;
14040;SDS011;7095;51.388;6.196;2022-12-10T05:05:09;107.27;;;42.53;;
14040;SDS011;7095;51.388;6.196;2022-12-10T05:07:38;110.50;;;42.63;;
14040;SDS011;7095;51.388;6.196;2022-12-10T05:10:09;103.77;;;43.00;;
14040;SDS011;7095;51.388;6.196;2022-12-10T05:12:37;98.67;;;41.60;;
14040;SDS011;7095;51.388;6.196;2022-12-10T05:15:06;102.63;;;41.40;;
14040;SDS011;7095;51.388;6.196;2022-12-10T05:17:35;109.57;;;44.90;;
14040;SDS011;7095;51.388;6.196;2022-12-10T05:20:04;121.60;;;45.33;;
14040;SDS011;7095;51.388;6.196;2022-12-10T05:22:33;113.97;;;44.37;;
14040;SDS011;7095;51.388;6.196;2022-12-10T05:25:21;110.57;;;46.43;;
14040;SDS011;7095;51.388;6.196;2022-12-10T05:27:53;116.43;;;46.20;;
14040;SDS011;7095;51.388;6.196;2022-12-10T05:30:21;133.73;;;50.67;;
14040;SDS011;7095;51.388;6.196;2022-12-10T05:32:50;127.50;;;49.67;;
14040;SDS011;7095;51.388;6.196;2022-12-10T05:35:18;119.73;;;48.33;;
14040;SDS011;7095;51.388;6.196;2022-12-10T05:37:47;119.73;;;48.70;;
14040;SDS011;7095;51.388;6.196;2022-12-10T05:40:15;125.93;;;47.90;;
14040;SDS011;7095;51.388;6.196;2022-12-10T05:42:45;120.37;;;48.70;;
14040;SDS011;7095;51.388;6.196;2022-12-10T05:45:13;131.23;;;49.57;;
14040;SDS011;7095;51.388;6.196;2022-12-10T05:47:42;133.50;;;46.80;;
14040;SDS011;7095;51.388;6.196;2022-12-10T05:50:10;129.83;;;51.17;;
14040;SDS011;7095;51.388;6.196;2022-12-10T05:52:39;134.43;;;48.03;;
14040;SDS011;7095;51.388;6.196;2022-12-10T05:55:07;128.63;;;50.20;;
14040;SDS011;7095;51.388;6.196;2022-12-10T05:57:36;125.50;;;47.77;;
14040;SDS011;7095;51.388;6.196;2022-12-10T06:00:07;124.53;;;47.20;;
14040;SDS011;7095;51.388;6.196;2022-12-10T06:02:40;112.10;;;44.27;;
14040;SDS011;7095;51.388;6.196;2022-12-10T06:05:08;117.07;;;45.93;;
14040;SDS011;7095;51.388;6.196;2022-12-10T06:07:37;117.07;;;44.73;;
14040;SDS011;7095;51.388;6.196;2022-12-10T06:10:06;125.77;;;50.00;;
14040;SDS011;7095;51.388;6.196;2022-12-10T06:12:35;117.50;;;43.80;;
14040;SDS011;7095;51.388;6.196;2022-12-10T06:15:04;120.77;;;46.97;;
14040;SDS011;7095;51.388;6.196;2022-12-10T06:17:35;119.37;;;46.30;;
14040;SDS011;7095;51.388;6.196;2022-12-10T06:20:04;117.27;;;45.70;;
14040;SDS011;7095;51.388;6.196;2022-12-10T06:22:33;124.57;;;48.63;;
14040;SDS011;7095;51.388;6.196;2022-12-10T06:25:02;124.37;;;48.17;;
14040;SDS011;7095;51.388;6.196;2022-12-10T06:27:31;118.53;;;48.20;;
14040;SDS011;7095;51.388;6.196;2022-12-10T06:30:00;133.30;;;50.10;;
14040;SDS011;7095;51.388;6.196;2022-12-10T06:32:29;118.43;;;49.67;;
14040;SDS011;7095;51.388;6.196;2022-12-10T06:34:58;133.90;;;48.47;;
14040;SDS011;7095;51.388;6.196;2022-12-10T06:37:28;134.60;;;50.30;;
14040;SDS011;7095;51.388;6.196;2022-12-10T06:39:56;116.10;;;47.13;;
14040;SDS011;7095;51.388;6.196;2022-12-10T06:42:25;125.23;;;48.50;;
14040;SDS011;7095;51.388;6.196;2022-12-10T06:44:53;135.20;;;51.70;;
14040;SDS011;7095;51.388;6.196;2022-12-10T06:47:21;133.93;;;48.03;;
14040;SDS011;7095;51.388;6.196;2022-12-10T06:49:52;143.90;;;52.33;;
14040;SDS011;7095;51.388;6.196;2022-12-10T06:52:20;133.10;;;51.20;;
14040;SDS011;7095;51.388;6.196;2022-12-10T06:54:48;136.03;;;51.30;;
14040;SDS011;7095;51.388;6.196;2022-12-10T06:57:17;127.20;;;50.30;;
14040;SDS011;7095;51.388;6.196;2022-12-10T06:59:45;126.13;;;48.93;;
14040;SDS011;7095;51.388;6.196;2022-12-10T07:02:13;134.33;;;51.13;;
14040;SDS011;7095;51.388;6.196;2022-12-10T07:04:42;130.70;;;49.80;;
14040;SDS011;7095;51.388;6.196;2022-12-10T07:07:12;125.73;;;50.07;;
14040;SDS011;7095;51.388;6.196;2022-12-10T07:09:43;121.03;;;47.70;;
14040;SDS011;7095;51.388;6.196;2022-12-10T07:12:12;129.20;;;48.17;;
14040;SDS011;7095;51.388;6.196;2022-12-10T07:14:40;123.47;;;47.73;;
14040;SDS011;7095;51.388;6.196;2022-12-10T07:17:09;121.30;;;46.37;;
14040;SDS011;7095;51.388;6.196;2022-12-10T07:19:37;120.20;;;47.73;;
14040;SDS011;7095;51.388;6.196;2022-12-10T07:22:06;118.77;;;47.07;;
14040;SDS011;7095;51.388;6.196;2022-12-10T07:24:36;120.37;;;47.00;;
14040;SDS011;7095;51.388;6.196;2022-12-10T07:27:04;131.17;;;49.00;;
14040;SDS011;7095;51.388;6.196;2022-12-10T07:29:33;128.30;;;50.93;;
14040;SDS011;7095;51.388;6.196;2022-12-10T07:32:02;131.90;;;48.17;;
14040;SDS011;7095;51.388;6.196;2022-12-10T07:34:31;128.17;;;49.70;;
14040;SDS011;7095;51.388;6.196;2022-12-10T07:36:59;135.47;;;49.50;;
14040;SDS011;7095;51.388;6.196;2022-12-10T07:39:27;128.50;;;50.87;;
14040;SDS011;7095;51.388;6.196;2022-12-10T07:41:57;128.37;;;50.43;;
14040;SDS011;7095;51.388;6.196;2022-12-10T07:44:27;133.33;;;50.73;;
14040;SDS011;7095;51.388;6.196;2022-12-10T07:46:56;128.20;;;49.17;;
14040;SDS011;7095;51.388;6.196;2022-12-10T07:49:25;136.53;;;49.00;;
14040;SDS011;7095;51.388;6.196;2022-12-10T07:51:53;130.73;;;48.10;;
14040;SDS011;7095;51.388;6.196;2022-12-10T07:54:22;130.37;;;48.40;;
14040;SDS011;7095;51.388;6.196;2022-12-10T07:56:50;116.73;;;47.53;;
14040;SDS011;7095;51.388;6.196;2022-12-10T07:59:20;128.13;;;49.03;;
14040;SDS011;7095;51.388;6.196;2022-12-10T08:01:49;125.77;;;48.60;;
14040;SDS011;7095;51.388;6.196;2022-12-10T08:04:17;128.93;;;48.47;;
14040;SDS011;7095;51.388;6.196;2022-12-10T08:06:46;115.07;;;45.63;;
14040;SDS011;7095;51.388;6.196;2022-12-10T08:09:15;124.83;;;46.17;;
14040;SDS011;7095;51.388;6.196;2022-12-10T08:11:43;123.77;;;46.80;;
14040;SDS011;7095;51.388;6.196;2022-12-10T08:14:12;126.83;;;48.10;;
14040;SDS011;7095;51.388;6.196;2022-12-10T08:16:42;118.53;;;47.10;;
14040;SDS011;7095;51.388;6.196;2022-12-10T08:19:10;121.33;;;48.00;;
14040;SDS011;7095;51.388;6.196;2022-12-10T08:21:46;113.17;;;44.83;;
14040;SDS011;7095;51.388;6.196;2022-12-10T08:24:15;114.43;;;45.83;;
14040;SDS011;7095;51.388;6.196;2022-12-10T08:26:43;116.23;;;47.77;;
14040;SDS011;7095;51.388;6.196;2022-12-10T08:29:12;113.60;;;45.37;;
14040;SDS011;7095;51.388;6.196;2022-12-10T08:31:42;115.90;;;46.07;;
14040;SDS011;7095;51.388;6.196;2022-12-10T08:34:11;107.77;;;45.50;;
14040;SDS011;7095;51.388;6.196;2022-12-10T08:36:41;117.40;;;46.60;;
14040;SDS011;7095;51.388;6.196;2022-12-10T08:39:09;112.07;;;47.33;;
14040;SDS011;7095;51.388;6.196;2022-12-10T08:41:42;113.47;;;47.60;;
14040;SDS011;7095;51.388;6.196;2022-12-10T08:44:12;120.57;;;47.13;;
14040;SDS011;7095;51.388;6.196;2022-12-10T08:46:42;117.07;;;46.40;;
14040;SDS011;7095;51.388;6.196;2022-12-10T08:49:10;122.07;;;49.20;;
14040;SDS011;7095;51.388;6.196;2022-12-10T08:51:41;118.83;;;46.57;;
14040;SDS011;7095;51.388;6.196;2022-12-10T08:54:09;121.43;;;47.07;;
14040;SDS011;7095;51.388;6.196;2022-12-10T08:56:38;116.17;;;46.23;;
14040;SDS011;7095;51.388;6.196;2022-12-10T08:59:07;113.97;;;46.30;;
14040;SDS011;7095;51.388;6.196;2022-12-10T09:01:36;118.33;;;45.07;;
14040;SDS011;7095;51.388;6.196;2022-12-10T09:04:06;114.83;;;47.63;;
14040;SDS011;7095;51.388;6.196;2022-12-10T09:06:34;110.67;;;44.33;;
14040;SDS011;7095;51.388;6.196;2022-12-10T09:09:03;120.20;;;47.77;;
14040;SDS011;7095;51.388;6.196;2022-12-10T09:11:32;115.90;;;44.77;;
14040;SDS011;7095;51.388;6.196;2022-12-10T09:14:01;125.33;;;49.83;;
14040;SDS011;7095;51.388;6.196;2022-12-10T09:16:31;120.80;;;47.20;;
14040;SDS011;7095;51.388;6.196;2022-12-10T09:19:01;125.30;;;49.73;;
14040;SDS011;7095;51.388;6.196;2022-12-10T09:21:32;124.20;;;48.73;;
14040;SDS011;7095;51.388;6.196;2022-12-10T09:24:00;131.80;;;51.77;;
14040;SDS011;7095;51.388;6.196;2022-12-10T09:26:29;119.33;;;48.30;;
14040;SDS011;7095;51.388;6.196;2022-12-10T09:28:57;118.83;;;49.00;;
14040;SDS011;7095;51.388;6.196;2022-12-10T09:31:26;127.20;;;48.57;;
14040;SDS011;7095;51.388;6.196;2022-12-10T09:33:56;110.13;;;45.97;;
14040;SDS011;7095;51.388;6.196;2022-12-10T09:36:25;129.20;;;49.03;;
14040;SDS011;7095;51.388;6.196;2022-12-10T09:39:01;135.90;;;50.60;;
14040;SDS011;7095;51.388;6.196;2022-12-10T09:41:43;122.50;;;48.17;;
14040;SDS011;7095;51.388;6.196;2022-12-10T09:44:38;118.70;;;48.77;;
14040;SDS011;7095;51.388;6.196;2022-12-10T09:47:12;124.40;;;49.70;;
14040;SDS011;7095;51.388;6.196;2022-12-10T09:49:45;127.50;;;48.43;;
14040;SDS011;7095;51.388;6.196;2022-12-10T09:52:24;116.10;;;48.73;;
14040;SDS011;7095;51.388;6.196;2022-12-10T09:54:59;129.40;;;48.70;;
14040;SDS011;7095;51.388;6.196;2022-12-10T09:57:31;120.87;;;49.83;;
14040;SDS011;7095;51.388;6.196;2022-12-10T10:00:04;119.43;;;48.60;;
14040;SDS011;7095;51.388;6.196;2022-12-10T10:02:44;112.23;;;46.10;;
14040;SDS011;7095;51.388;6.196;2022-12-10T10:05:13;126.43;;;49.30;;
14040;SDS011;7095;51.388;6.196;2022-12-10T10:07:49;118.90;;;47.90;;
14040;SDS011;7095;51.388;6.196;2022-12-10T10:10:27;118.83;;;47.60;;
14040;SDS011;7095;51.388;6.196;2022-12-10T10:12:58;117.23;;;46.23;;
14040;SDS011;7095;51.388;6.196;2022-12-10T10:15:38;116.77;;;47.83;;
14040;SDS011;7095;51.388;6.196;2022-12-10T10:18:12;123.20;;;48.40;;
14040;SDS011;7095;51.388;6.196;2022-12-10T10:20:45;127.07;;;46.40;;
14040;SDS011;7095;51.388;6.196;2022-12-10T10:23:14;120.57;;;47.67;;
14040;SDS011;7095;51.388;6.196;2022-12-10T10:25:45;127.37;;;48.53;;
14040;SDS011;7095;51.388;6.196;2022-12-10T10:28:17;130.53;;;50.30;;
14040;SDS011;7095;51.388;6.196;2022-12-10T10:30:47;120.60;;;47.90;;
14040;SDS011;7095;51.388;6.196;2022-12-10T10:33:18;123.67;;;49.10;;
14040;SDS011;7095;51.388;6.196;2022-12-10T10:35:47;124.87;;;49.90;;
14040;SDS011;7095;51.388;6.196;2022-12-10T10:38:18;130.63;;;49.97;;
14040;SDS011;7095;51.388;6.196;2022-12-10T10:40:52;123.80;;;48.23;;
14040;SDS011;7095;51.388;6.196;2022-12-10T10:43:23;132.27;;;49.67;;
14040;SDS011;7095;51.388;6.196;2022-12-10T10:45:53;125.23;;;49.87;;
14040;SDS011;7095;51.388;6.196;2022-12-10T10:48:25;140.37;;;51.40;;
14040;SDS011;7095;51.388;6.196;2022-12-10T10:50:55;124.13;;;50.07;;
14040;SDS011;7095;51.388;6.196;2022-12-10T10:53:35;131.40;;;48.67;;
14040;SDS011;7095;51.388;6.196;2022-12-10T10:56:12;136.13;;;52.70;;
14040;SDS011;7095;51.388;6.196;2022-12-10T10:58:49;131.47;;;51.37;;
14040;SDS011;7095;51.388;6.196;2022-12-10T11:01:22;138.97;;;50.10;;
14040;SDS011;7095;51.388;6.196;2022-12-10T11:03:54;144.60;;;55.87;;
14040;SDS011;7095;51.388;6.196;2022-12-10T11:06:25;171.93;;;63.60;;
14040;SDS011;7095;51.388;6.196;2022-12-10T11:08:55;141.50;;;52.00;;
14040;SDS011;7095;51.388;6.196;2022-12-10T11:11:32;134.07;;;50.83;;
14040;SDS011;7095;51.388;6.196;2022-12-10T11:14:12;124.77;;;50.93;;
14040;SDS011;7095;51.388;6.196;2022-12-10T11:16:42;133.33;;;50.67;;
14040;SDS011;7095;51.388;6.196;2022-12-10T11:19:16;140.13;;;53.93;;
14040;SDS011;7095;51.388;6.196;2022-12-10T11:21:48;136.23;;;51.30;;
14040;SDS011;7095;51.388;6.196;2022-12-10T11:24:17;133.87;;;54.63;;
14040;SDS011;7095;51.388;6.196;2022-12-10T11:26:55;135.80;;;53.73;;
14040;SDS011;7095;51.388;6.196;2022-12-10T11:29:38;131.97;;;52.23;;
14040;SDS011;7095;51.388;6.196;2022-12-10T11:32:20;134.47;;;51.37;;
14040;SDS011;7095;51.388;6.196;2022-12-10T11:35:02;130.63;;;50.33;;
14040;SDS011;7095;51.388;6.196;2022-12-10T11:37:41;121.97;;;50.73;;
14040;SDS011;7095;51.388;6.196;2022-12-10T11:40:28;134.53;;;52.90;;
14040;SDS011;7095;51.388;6.196;2022-12-10T11:46:16;130.43;;;51.13;;
14040;SDS011;7095;51.388;6.196;2022-12-10T11:49:01;120.47;;;49.90;;
14040;SDS011;7095;51.388;6.196;2022-12-10T11:51:40;119.67;;;50.23;;
14040;SDS011;7095;51.388;6.196;2022-12-10T11:57:05;120.77;;;49.23;;
14040;SDS011;7095;51.388;6.196;2022-12-10T11:59:44;121.47;;;49.33;;
14040;SDS011;7095;51.388;6.196;2022-12-10T12:02:41;118.83;;;49.47;;
14040;SDS011;7095;51.388;6.196;2022-12-10T12:05:30;114.90;;;49.83;;
14040;SDS011;7095;51.388;6.196;2022-12-10T12:08:12;120.73;;;51.57;;
14040;SDS011;7095;51.388;6.196;2022-12-10T12:10:58;117.87;;;50.63;;
14040;SDS011;7095;51.388;6.196;2022-12-10T12:13:38;107.40;;;51.50;;
14040;SDS011;7095;51.388;6.196;2022-12-10T12:16:14;120.80;;;50.07;;
14040;SDS011;7095;51.388;6.196;2022-12-10T12:18:47;112.20;;;49.03;;
14040;SDS011;7095;51.388;6.196;2022-12-10T12:21:21;120.07;;;49.00;;
14040;SDS011;7095;51.388;6.196;2022-12-10T12:23:50;102.97;;;45.63;;
14040;SDS011;7095;51.388;6.196;2022-12-10T12:26:31;106.43;;;46.37;;
14040;SDS011;7095;51.388;6.196;2022-12-10T12:29:06;114.67;;;47.90;;
14040;SDS011;7095;51.388;6.196;2022-12-10T12:31:45;110.97;;;47.33;;
14040;SDS011;7095;51.388;6.196;2022-12-10T12:34:18;108.23;;;46.23;;
14040;SDS011;7095;51.388;6.196;2022-12-10T12:36:52;112.10;;;47.50;;
14040;SDS011;7095;51.388;6.196;2022-12-10T12:39:23;99.07;;;45.47;;
14040;SDS011;7095;51.388;6.196;2022-12-10T12:41:59;100.93;;;46.60;;
14040;SDS011;7095;51.388;6.196;2022-12-10T12:44:36;119.10;;;49.37;;
14040;SDS011;7095;51.388;6.196;2022-12-10T12:47:19;102.80;;;45.77;;
14040;SDS011;7095;51.388;6.196;2022-12-10T12:49:57;104.53;;;45.93;;
14040;SDS011;7095;51.388;6.196;2022-12-10T12:52:29;113.47;;;48.77;;
14040;SDS011;7095;51.388;6.196;2022-12-10T12:55:04;106.83;;;43.73;;
14040;SDS011;7095;51.388;6.196;2022-12-10T12:57:43;105.97;;;43.37;;
14040;SDS011;7095;51.388;6.196;2022-12-10T13:00:16;110.20;;;46.00;;
14040;SDS011;7095;51.388;6.196;2022-12-10T13:02:53;112.77;;;46.17;;
14040;SDS011;7095;51.388;6.196;2022-12-10T13:05:28;113.47;;;45.10;;
14040;SDS011;7095;51.388;6.196;2022-12-10T13:10:53;110.90;;;46.20;;
14040;SDS011;7095;51.388;6.196;2022-12-10T13:13:27;112.53;;;43.53;;
14040;SDS011;7095;51.388;6.196;2022-12-10T13:19:26;105.70;;;43.03;;
14040;SDS011;7095;51.388;6.196;2022-12-10T13:21:59;110.87;;;44.00;;
14040;SDS011;7095;51.388;6.196;2022-12-10T13:27:41;108.77;;;41.97;;
14040;SDS011;7095;51.388;6.196;2022-12-10T13:30:30;106.47;;;42.60;;
14040;SDS011;7095;51.388;6.196;2022-12-10T13:33:13;111.77;;;43.20;;
14040;SDS011;7095;51.388;6.196;2022-12-10T13:35:55;113.40;;;42.83;;
14040;SDS011;7095;51.388;6.196;2022-12-10T13:38:39;114.63;;;43.90;;
14040;SDS011;7095;51.388;6.196;2022-12-10T13:41:08;111.17;;;43.60;;
14040;SDS011;7095;51.388;6.196;2022-12-10T13:43:55;115.40;;;44.23;;
14040;SDS011;7095;51.388;6.196;2022-12-10T13:46:50;117.27;;;44.77;;
14040;SDS011;7095;51.388;6.196;2022-12-10T13:49:22;122.63;;;44.87;;
14040;SDS011;7095;51.388;6.196;2022-12-10T13:51:57;127.00;;;45.53;;
14040;SDS011;7095;51.388;6.196;2022-12-10T13:54:32;123.73;;;42.23;;
14040;SDS011;7095;51.388;6.196;2022-12-10T13:57:14;120.70;;;44.17;;
14040;SDS011;7095;51.388;6.196;2022-12-10T13:59:54;124.80;;;42.37;;
14040;SDS011;7095;51.388;6.196;2022-12-10T14:02:55;124.10;;;44.03;;
14040;SDS011;7095;51.388;6.196;2022-12-10T14:05:36;123.07;;;45.07;;
14040;SDS011;7095;51.388;6.196;2022-12-10T14:08:18;131.17;;;45.23;;
14040;SDS011;7095;51.388;6.196;2022-12-10T14:10:50;126.40;;;43.13;;
14040;SDS011;7095;51.388;6.196;2022-12-10T14:13:21;127.50;;;46.00;;
14040;SDS011;7095;51.388;6.196;2022-12-10T14:15:57;117.53;;;43.10;;
14040;SDS011;7095;51.388;6.196;2022-12-10T14:18:29;118.97;;;41.03;;
14040;SDS011;7095;51.388;6.196;2022-12-10T14:20:58;123.17;;;45.50;;
14040;SDS011;7095;51.388;6.196;2022-12-10T14:23:34;124.53;;;43.43;;
14040;SDS011;7095;51.388;6.196;2022-12-10T14:26:13;117.40;;;43.10;;
14040;SDS011;7095;51.388;6.196;2022-12-10T14:28:44;124.20;;;45.07;;
14040;SDS011;7095;51.388;6.196;2022-12-10T14:31:15;113.47;;;42.57;;
14040;SDS011;7095;51.388;6.196;2022-12-10T14:33:46;118.17;;;43.43;;
14040;SDS011;7095;51.388;6.196;2022-12-10T14:36:19;129.63;;;45.50;;
14040;SDS011;7095;51.388;6.196;2022-12-10T14:38:54;112.07;;;43.07;;
14040;SDS011;7095;51.388;6.196;2022-12-10T14:41:23;122.57;;;42.47;;
14040;SDS011;7095;51.388;6.196;2022-12-10T14:43:53;120.13;;;43.60;;
14040;SDS011;7095;51.388;6.196;2022-12-10T14:46:23;111.80;;;41.00;;
14040;SDS011;7095;51.388;6.196;2022-12-10T14:48:53;118.87;;;43.23;;
14040;SDS011;7095;51.388;6.196;2022-12-10T14:51:23;113.40;;;39.07;;
14040;SDS011;7095;51.388;6.196;2022-12-10T14:53:55;117.03;;;39.27;;
14040;SDS011;7095;51.388;6.196;2022-12-10T14:56:25;104.60;;;39.37;;
14040;SDS011;7095;51.388;6.196;2022-12-10T14:58:59;100.73;;;37.53;;
14040;SDS011;7095;51.388;6.196;2022-12-10T15:01:33;103.57;;;38.57;;
14040;SDS011;7095;51.388;6.196;2022-12-10T15:04:05;101.40;;;39.63;;
14040;SDS011;7095;51.388;6.196;2022-12-10T15:06:39;106.00;;;36.70;;
14040;SDS011;7095;51.388;6.196;2022-12-10T15:09:13;111.40;;;40.27;;
14040;SDS011;7095;51.388;6.196;2022-12-10T15:11:43;116.47;;;39.53;;
14040;SDS011;7095;51.388;6.196;2022-12-10T15:14:16;113.47;;;40.30;;